createdAt,value
2022-09-07T00:02:42.834Z,100.00
2022-09-07T00:07:44.542Z,100.00
2022-09-07T00:12:46.082Z,100.00
2022-09-07T00:17:47.547Z,100.00
2022-09-07T00:22:49.244Z,100.00
2022-09-07T00:27:50.686Z,100.00
2022-09-07T00:32:52.150Z,100.00
2022-09-07T00:37:53.655Z,100.00
2022-09-07T00:42:55.198Z,100.00
2022-09-07T00:53:50.668Z,100.00
2022-09-07T00:58:52.791Z,100.00
2022-09-07T01:03:57.554Z,100.00
2022-09-07T01:09:09.453Z,100.00
2022-09-07T01:14:15.159Z,100.00
2022-09-07T01:19:54.415Z,100.00
2022-09-07T01:25:06.004Z,100.00
2022-09-07T01:30:16.147Z,100.00
2022-09-07T01:35:28.328Z,100.00
2022-09-07T01:40:35.751Z,100.00
2022-09-07T01:45:40.804Z,100.00
2022-09-07T01:50:56.427Z,100.00
2022-09-07T01:56:03.811Z,100.00
2022-09-07T02:01:13.353Z,100.00
2022-09-07T02:06:20.863Z,100.00
2022-09-07T02:11:40.648Z,100.00
2022-09-07T02:16:52.635Z,100.00
2022-09-07T02:22:00.556Z,100.00
2022-09-07T02:27:07.637Z,100.00
2022-09-07T02:32:09.396Z,100.00
2022-09-07T02:37:13.751Z,100.00
2022-09-07T02:42:15.289Z,100.00
2022-09-07T02:47:35.410Z,100.00
2022-09-07T02:52:39.701Z,100.00
2022-09-07T02:58:00.959Z,100.00
2022-09-07T03:03:33.559Z,100.00
2022-09-07T03:08:40.411Z,100.00
2022-09-07T03:13:41.974Z,100.00
2022-09-07T03:18:44.193Z,100.00
2022-09-07T03:23:49.923Z,100.00
2022-09-07T03:28:53.252Z,100.00
2022-09-07T03:33:54.991Z,100.00
2022-09-07T03:38:58.076Z,100.00
2022-09-07T03:44:07.111Z,100.00
2022-09-07T03:49:08.575Z,100.00
2022-09-07T03:54:10.147Z,100.00
2022-09-07T03:59:11.619Z,100.00
2022-09-07T04:04:13.703Z,100.00
2022-09-07T04:09:15.250Z,100.00
2022-09-07T04:14:16.937Z,100.00
2022-09-07T04:19:18.706Z,100.00
2022-09-07T04:24:20.229Z,100.00
2022-09-07T04:29:21.697Z,100.00
2022-09-07T04:34:23.232Z,100.00
2022-09-07T04:39:24.842Z,100.00
2022-09-07T04:44:26.331Z,100.00
2022-09-07T04:49:27.845Z,100.00
2022-09-07T04:54:29.499Z,100.00
2022-09-07T04:59:30.985Z,100.00
2022-09-07T05:04:35.414Z,100.00
2022-09-07T05:09:36.894Z,100.00
2022-09-07T05:14:44.827Z,100.00
2022-09-07T05:19:48.208Z,100.00
2022-09-07T05:24:50.068Z,100.00
2022-09-07T05:30:07.172Z,100.00
2022-09-07T05:35:09.429Z,100.00
2022-09-07T05:40:11.421Z,100.00
2022-09-07T05:45:13.162Z,100.00
2022-09-07T05:50:15.631Z,100.00
2022-09-07T05:55:29.419Z,100.00
2022-09-07T06:00:31.726Z,100.00
2022-09-07T06:05:33.178Z,100.00
2022-09-07T06:15:44.481Z,81.27
2022-09-07T06:20:46.137Z,85.85
2022-09-07T06:25:49.497Z,91.69
2022-09-07T06:30:51.041Z,100.00
2022-09-07T06:36:00.453Z,76.16
2022-09-07T06:51:46.917Z,82.67
2022-09-07T06:56:48.395Z,64.49
2022-09-07T07:01:49.964Z,65.44
2022-09-07T07:06:51.554Z,64.70
2022-09-07T07:11:53.124Z,59.08
2022-09-07T07:16:54.738Z,51.05
2022-09-07T07:27:17.793Z,46.58
2022-09-07T07:32:19.313Z,48.21
2022-09-07T07:37:22.792Z,54.63
2022-09-07T07:42:27.471Z,62.02
2022-09-07T07:47:28.931Z,63.97
2022-09-07T07:52:50.497Z,50.87
2022-09-07T07:57:52.268Z,56.53
2022-09-07T08:02:53.799Z,50.83
2022-09-07T08:07:55.350Z,51.34
2022-09-07T08:12:57.101Z,56.97
2022-09-07T08:17:58.846Z,63.84
2022-09-07T08:23:00.301Z,71.91
2022-09-07T08:28:02.863Z,75.30
2022-09-07T08:33:04.419Z,74.58
2022-09-07T08:38:06.281Z,78.74
2022-09-07T08:43:18.147Z,80.37
2022-09-07T08:48:29.481Z,81.67
2022-09-07T08:53:31.865Z,77.39
2022-09-07T08:58:54.545Z,79.94
2022-09-07T09:09:20.365Z,81.11
2022-09-07T09:14:27.934Z,77.77
2022-09-07T09:19:53.282Z,77.22
2022-09-07T09:25:16.638Z,74.33
2022-09-07T09:30:20.809Z,77.69
2022-09-07T09:35:35.792Z,73.83
2022-09-07T09:40:37.471Z,76.94
2022-09-07T09:56:39.881Z,75.01
2022-09-07T10:07:22.698Z,70.61
2022-09-07T10:12:33.183Z,71.68
2022-09-07T10:17:42.528Z,67.56
2022-09-07T10:22:50.863Z,68.31
2022-09-07T10:28:08.174Z,70.09
2022-09-07T10:33:24.542Z,70.29
2022-09-07T10:38:34.149Z,72.45
2022-09-07T10:43:47.794Z,69.71
2022-09-07T10:49:11.313Z,70.83
2022-09-07T10:54:32.235Z,69.24
2022-09-07T11:00:10.103Z,67.16
2022-09-07T11:05:31.061Z,68.99
2022-09-07T11:11:08.859Z,67.35
2022-09-07T11:16:50.630Z,67.30
2022-09-07T11:21:57.993Z,65.94
2022-09-07T11:27:21.386Z,65.87
2022-09-07T11:32:26.716Z,65.41
2022-09-07T11:37:42.078Z,64.08
2022-09-07T11:42:55.771Z,63.25
2022-09-07T11:53:56.490Z,63.79
2022-09-07T11:59:16.159Z,64.14
2022-09-07T12:04:35.243Z,61.15
2022-09-07T12:09:44.437Z,60.92
2022-09-07T12:15:05.825Z,59.61
2022-09-07T12:20:15.503Z,59.01
2022-09-07T12:25:18.523Z,59.39
2022-09-07T12:30:19.905Z,59.92
2022-09-07T12:35:30.425Z,61.03
2022-09-07T12:40:31.806Z,61.56
2022-09-07T12:45:36.233Z,62.02
2022-09-07T12:50:57.013Z,60.63
2022-09-07T13:01:29.733Z,59.80
2022-09-07T13:07:06.083Z,61.23
2022-09-07T13:17:56.802Z,58.38
2022-09-07T13:23:19.490Z,58.73
2022-09-07T13:28:41.384Z,58.62
2022-09-07T13:33:46.310Z,56.04
2022-09-07T13:38:50.425Z,56.10
2022-09-07T13:43:58.421Z,56.57
2022-09-07T13:49:14.455Z,56.60
2022-09-07T13:54:41.960Z,56.83
2022-09-07T13:59:44.122Z,56.49
2022-09-07T14:04:50.143Z,55.61
2022-09-07T14:15:46.724Z,52.64
2022-09-07T14:20:51.341Z,53.64
2022-09-07T14:26:16.605Z,53.42
2022-09-07T14:31:21.018Z,54.11
2022-09-07T14:36:43.934Z,54.76
2022-09-07T14:41:47.059Z,57.10
2022-09-07T14:46:53.088Z,58.39
2022-09-07T14:51:56.983Z,58.27
2022-09-07T14:57:00.556Z,59.54
2022-09-07T15:02:20.353Z,58.48
2022-09-07T15:13:24.163Z,57.65
2022-09-07T15:18:47.175Z,59.14
2022-09-07T15:23:50.479Z,57.57
2022-09-07T15:34:16.146Z,59.90
2022-09-07T15:39:26.084Z,60.11
2022-09-07T15:44:28.622Z,59.48
2022-09-07T15:49:30.126Z,58.77
2022-09-07T15:54:35.239Z,59.12
2022-09-07T15:59:38.443Z,59.61
2022-09-07T16:04:39.943Z,58.82
2022-09-07T16:09:41.468Z,57.50
2022-09-07T16:14:42.898Z,58.53
2022-09-07T16:19:44.315Z,59.52
2022-09-07T16:24:45.809Z,58.36
2022-09-07T16:29:47.769Z,65.22
2022-09-07T16:34:49.197Z,67.60
2022-09-07T16:39:50.655Z,71.17
2022-09-07T16:44:52.416Z,71.89
2022-09-07T16:49:54.551Z,71.94
2022-09-07T16:54:55.918Z,72.26
2022-09-07T16:59:57.485Z,73.26
2022-09-07T17:04:58.870Z,74.60
2022-09-07T17:10:00.336Z,75.35
2022-09-07T17:15:01.701Z,71.90
2022-09-07T17:20:03.354Z,77.26
2022-09-07T17:25:05.168Z,75.71
2022-09-07T17:30:07.073Z,74.16
2022-09-07T17:35:08.935Z,71.94
2022-09-07T17:40:10.783Z,73.83
2022-09-07T17:45:12.310Z,74.71
2022-09-07T17:50:13.762Z,77.88
2022-09-07T17:55:15.186Z,75.47
2022-09-07T18:00:16.698Z,75.15
2022-09-07T18:05:18.380Z,77.02
2022-09-07T18:10:19.831Z,76.60
2022-09-07T18:15:21.571Z,77.21
2022-09-07T18:20:22.973Z,74.29
2022-09-07T18:25:24.389Z,74.64
2022-09-07T18:30:26.432Z,79.30
2022-09-07T18:35:27.803Z,77.33
2022-09-07T18:40:29.247Z,78.74
2022-09-07T18:45:30.725Z,80.85
2022-09-07T18:50:32.119Z,78.15
2022-09-07T18:55:33.719Z,78.97
2022-09-07T19:00:35.216Z,79.38
2022-09-07T19:05:53.389Z,79.48
2022-09-07T19:10:54.997Z,79.17
2022-09-07T19:16:03.857Z,81.95
2022-09-07T19:21:07.771Z,82.91
2022-09-07T19:26:10.560Z,81.73
2022-09-07T19:31:12.021Z,85.21
2022-09-07T19:36:13.796Z,85.27
2022-09-07T19:41:15.751Z,85.01
2022-09-07T19:46:22.714Z,86.91
2022-09-07T19:51:26.190Z,88.24
2022-09-07T19:56:27.578Z,87.43
2022-09-07T20:01:29.078Z,86.66
2022-09-07T20:06:32.147Z,87.82
2022-09-07T20:11:33.968Z,90.09
2022-09-07T20:16:35.921Z,88.30
2022-09-07T20:21:37.444Z,89.15
2022-09-07T20:26:39.124Z,91.40
2022-09-07T20:31:40.729Z,91.00
2022-09-07T20:36:42.256Z,89.81
2022-09-07T20:41:43.656Z,91.37
2022-09-07T20:46:45.252Z,90.87
2022-09-07T20:51:46.682Z,94.02
2022-09-07T20:56:48.073Z,93.64
2022-09-07T21:01:49.567Z,93.15
2022-09-07T21:06:51.047Z,94.57
2022-09-07T21:11:56.767Z,94.65
2022-09-07T21:16:58.479Z,96.24
2022-09-07T21:21:59.842Z,97.24
2022-09-07T21:27:01.231Z,99.85
2022-09-07T21:32:02.906Z,97.64
2022-09-07T21:37:04.362Z,98.43
2022-09-07T21:42:05.926Z,100.00
2022-09-07T21:47:07.495Z,99.48
2022-09-07T21:52:08.967Z,99.97
2022-09-07T21:57:10.951Z,100.00
2022-09-07T22:02:12.372Z,100.00
2022-09-07T22:07:13.880Z,100.00
2022-09-07T22:12:15.382Z,100.00
2022-09-07T22:17:16.814Z,100.00
2022-09-07T22:22:18.384Z,100.00
2022-09-07T22:27:19.790Z,100.00
2022-09-07T22:32:21.203Z,100.00
2022-09-07T22:37:22.685Z,100.00
2022-09-07T22:42:24.087Z,100.00
2022-09-07T22:47:26.596Z,100.00
2022-09-07T22:52:27.998Z,100.00
2022-09-07T22:57:29.411Z,100.00
2022-09-07T23:02:30.861Z,100.00
2022-09-07T23:07:32.230Z,100.00
2022-09-07T23:12:33.719Z,100.00
2022-09-07T23:17:35.184Z,100.00
2022-09-07T23:22:36.774Z,100.00
2022-09-07T23:27:38.382Z,100.00
2022-09-07T23:32:39.819Z,100.00
2022-09-07T23:37:41.258Z,100.00
2022-09-07T23:42:42.711Z,100.00
2022-09-07T23:47:44.175Z,100.00
2022-09-07T23:52:45.819Z,100.00
2022-09-07T23:57:47.345Z,100.00
